Time;durP1;ratioP1;P1;durP2;ratioP2;P2;SDS_P1;SDS_P2;PMS_P1;PMS_P2;Temp;Humidity;BMP_temperature;BMP_pressure;BME280_temperature;BME280_humidity;BME280_pressure;Samples;Min_cycle;Max_cycle;Signal;HPM_P1;HPM_P2
2021/12/27 00:02:05;;;;;;;48.22;29.52;;;;;;;7.26;64.43;94686.81;5047903;28;20460;-68
2021/12/27 00:04:32;;;;;;;56.80;30.83;;;;;;;7.72;63.05;94707.25;5049559;28;20192;-69
2021/12/27 00:06:59;;;;;;;51.03;30.97;;;;;;;7.68;63.59;94721.81;5051448;28;20239;-70
2021/12/27 00:09:26;;;;;;;44.38;26.27;;;;;;;7.46;64.54;94724.38;5047673;28;20530;-70
2021/12/27 00:11:53;;;;;;;44.13;26.37;;;;;;;7.66;64.33;94701.19;5051686;28;20550;-69
2021/12/27 00:14:20;;;;;;;43.10;26.10;;;;;;;7.39;64.49;94712.53;5051003;28;20439;-69
2021/12/27 00:16:47;;;;;;;40.28;23.73;;;;;;;7.02;66.00;94725.28;5045081;28;21126;-70
2021/12/27 00:19:14;;;;;;;37.45;24.55;;;;;;;7.13;66.04;94709.53;5045301;28;20244;-69
2021/12/27 00:21:41;;;;;;;43.33;25.27;;;;;;;6.82;66.95;94733.56;5048546;28;20192;-69
2021/12/27 00:24:08;;;;;;;40.15;25.02;;;;;;;7.28;65.79;94710.81;5049698;28;20450;-69
2021/12/27 00:26:35;;;;;;;37.47;23.73;;;;;;;6.99;65.71;94718.72;5051153;28;20193;-69
2021/12/27 00:29:03;;;;;;;37.00;22.15;;;;;;;7.14;65.35;94710.34;5037698;28;20698;-70
2021/12/27 00:31:30;;;;;;;37.27;22.50;;;;;;;7.26;65.41;94699.84;5048957;28;20659;-69
2021/12/27 00:33:57;;;;;;;36.53;21.97;;;;;;;7.07;65.37;94709.72;5047893;28;20439;-70
2021/12/27 00:36:24;;;;;;;35.93;23.00;;;;;;;7.08;65.55;94690.44;5046462;28;20813;-70
2021/12/27 00:38:51;;;;;;;40.03;23.37;;;;;;;6.85;65.83;94727.88;5050312;28;20482;-70
2021/12/27 00:41:18;;;;;;;35.85;22.35;;;;;;;7.22;65.10;94706.56;5051357;28;20445;-70
2021/12/27 00:43:45;;;;;;;37.40;21.93;;;;;;;7.02;65.13;94702.63;5046863;28;20195;-69
2021/12/27 00:46:12;;;;;;;36.23;23.23;;;;;;;7.13;65.61;94706.94;5050735;28;20949;-69
2021/12/27 00:48:39;;;;;;;33.47;22.40;;;;;;;6.69;67.05;94723.44;5038518;28;20450;-68
2021/12/27 00:51:08;;;;;;;35.67;23.07;;;;;;;7.41;65.09;94710.50;5049355;28;20455;-69
2021/12/27 00:53:36;;;;;;;31.20;21.17;;;;;;;6.57;66.83;94730.50;5048118;28;20451;-69
2021/12/27 00:56:03;;;;;;;36.10;21.90;;;;;;;6.47;67.08;94714.75;5047405;28;20570;-68
2021/12/27 00:58:30;;;;;;;32.30;22.45;;;;;;;6.67;67.30;94712.47;5050250;28;20583;-70
2021/12/27 01:00:58;;;;;;;35.17;21.85;;;;;;;6.41;67.86;94723.47;5050716;28;20215;-68
2021/12/27 01:03:25;;;;;;;35.25;21.73;;;;;;;6.34;68.37;94729.84;5049833;28;20231;-69
2021/12/27 01:05:52;;;;;;;37.03;22.50;;;;;;;6.29;68.63;94733.16;5050672;28;20199;-69
2021/12/27 01:08:20;;;;;;;35.75;22.58;;;;;;;6.42;68.70;94727.66;5050427;28;20824;-69
2021/12/27 01:13:36;;;;;;;36.85;23.05;;;;;;;6.72;67.62;94722.97;5049994;28;20192;-69
2021/12/27 01:18:40;;;;;;;35.75;23.58;;;;;;;6.65;67.73;94711.94;5049854;28;20315;-69
2021/12/27 01:21:08;;;;;;;37.90;22.67;;;;;;;6.70;68.08;94727.63;5050715;28;20210;-68
2021/12/27 01:23:35;;;;;;;35.63;21.70;;;;;;;6.57;67.95;94714.13;5049623;28;20443;-68
2021/12/27 01:26:03;;;;;;;37.42;23.55;;;;;;;6.73;67.73;94708.16;5049629;28;20530;-69
2021/12/27 01:28:30;;;;;;;32.33;19.80;;;;;;;6.23;68.71;94712.47;5049659;28;20680;-69
2021/12/27 01:30:57;;;;;;;36.20;22.00;;;;;;;6.83;67.51;94709.09;5049902;28;20443;-68
2021/12/27 01:33:25;;;;;;;35.87;22.67;;;;;;;7.06;66.85;94679.50;5038793;28;20444;-69
2021/12/27 01:35:54;;;;;;;34.78;20.50;;;;;;;6.48;66.67;94685.06;5042989;28;20475;-70
2021/12/27 01:38:22;;;;;;;33.05;20.50;;;;;;;6.64;67.70;94688.72;5046284;28;20224;-69
2021/12/27 01:40:51;;;;;;;29.35;18.88;;;;;;;6.36;67.87;94694.75;5044635;28;20299;-68
2021/12/27 01:43:22;;;;;;;35.83;21.25;;;;;;;6.92;67.20;94679.03;5043354;28;20572;-68
2021/12/27 01:45:56;;;;;;;36.37;21.60;;;;;;;7.11;66.67;94675.16;5050181;28;20650;-69
2021/12/27 01:48:28;;;;;;;32.17;20.60;;;;;;;6.76;67.09;94690.22;5037454;28;20498;-68
2021/12/27 01:50:56;;;;;;;28.50;19.75;;;;;;;7.09;67.16;94687.63;5048165;28;20449;-71
2021/12/27 01:53:25;;;;;;;33.28;21.35;;;;;;;6.81;66.96;94699.94;5047179;28;20531;-69
2021/12/27 01:55:54;;;;;;;33.72;20.00;;;;;;;6.87;67.13;94712.81;5046619;28;20203;-69
2021/12/27 01:58:22;;;;;;;31.92;19.60;;;;;;;7.05;66.29;94691.72;5047690;28;20220;-69
2021/12/27 02:00:53;;;;;;;31.07;19.67;;;;;;;7.13;66.56;94683.50;5033349;28;20663;-69
2021/12/27 02:03:25;;;;;;;32.57;19.70;;;;;;;7.18;66.11;94674.97;5048045;28;20446;-69
2021/12/27 02:05:51;;;;;;;31.17;20.05;;;;;;;7.00;66.01;94657.00;5048167;28;20801;-69
2021/12/27 02:08:18;;;;;;;27.55;16.67;;;;;;;6.78;67.47;94695.19;5047104;28;20275;-71
2021/12/27 02:10:46;;;;;;;28.73;18.40;;;;;;;6.92;67.09;94691.25;5048969;28;20196;-69
2021/12/27 02:13:13;;;;;;;29.27;18.50;;;;;;;7.47;65.88;94688.66;5048617;28;21059;-70
2021/12/27 02:15:40;;;;;;;30.27;19.30;;;;;;;7.60;65.45;94693.53;5049317;28;20257;-69
2021/12/27 02:18:09;;;;;;;28.43;18.93;;;;;;;7.95;64.52;94681.72;5042481;28;20277;-70
2021/12/27 02:20:38;;;;;;;32.90;19.88;;;;;;;8.09;63.97;94645.59;5041081;28;20893;-69
2021/12/27 02:23:11;;;;;;;36.80;25.83;;;;;;;8.10;64.49;94642.72;5039535;28;20220;-69
2021/12/27 02:25:38;;;;;;;40.00;28.03;;;;;;;7.88;64.43;94693.38;5043015;28;20957;-67
2021/12/27 02:28:08;;;;;;;32.37;19.70;;;;;;;7.71;64.86;94695.22;5048480;28;20827;-70
2021/12/27 02:30:37;;;;;;;26.40;18.27;;;;;;;8.24;63.54;94656.22;5048756;28;20900;-69
2021/12/27 02:33:06;;;;;;;28.53;18.77;;;;;;;8.80;62.14;94642.59;5044755;28;20843;-69
2021/12/27 02:35:38;;;;;;;28.73;17.83;;;;;;;8.00;62.92;94683.56;5057558;28;20440;-69
2021/12/27 02:38:09;;;;;;;27.70;17.40;;;;;;;8.35;62.46;94663.09;5039064;28;20507;-69
2021/12/27 02:40:39;;;;;;;27.80;17.40;;;;;;;8.66;62.12;94633.63;5046661;28;20204;-69
2021/12/27 02:43:10;;;;;;;25.60;17.43;;;;;;;8.05;62.46;94657.53;5047938;28;20450;-69
2021/12/27 02:45:42;;;;;;;27.17;15.90;;;;;;;7.96;63.42;94630.31;5049192;28;20450;-70
2021/12/27 02:48:10;;;;;;;26.63;16.53;;;;;;;8.06;63.53;94652.06;5036032;28;20501;-68
2021/12/27 02:50:39;;;;;;;25.07;16.70;;;;;;;7.99;63.77;94635.06;5046606;28;20493;-69
2021/12/27 02:53:08;;;;;;;23.93;16.60;;;;;;;8.22;63.60;94639.97;5046480;28;20807;-69
2021/12/27 02:55:36;;;;;;;24.10;15.30;;;;;;;8.37;63.14;94632.31;5046387;28;20443;-69
2021/12/27 02:58:04;;;;;;;23.97;16.27;;;;;;;8.24;63.17;94640.56;5048645;28;20533;-69
2021/12/27 03:00:51;;;;;;;25.50;16.83;;;;;;;8.18;62.91;94638.88;5049818;28;20549;-69
2021/12/27 03:03:19;;;;;;;26.73;17.40;;;;;;;8.42;63.11;94642.81;5049265;28;20446;-68
2021/12/27 03:05:46;;;;;;;29.57;18.90;;;;;;;8.40;62.72;94657.94;5040773;28;20444;-68
2021/12/27 03:08:15;;;;;;;24.27;15.80;;;;;;;8.68;61.80;94639.38;5038917;28;20820;-69
2021/12/27 03:10:45;;;;;;;25.23;17.53;;;;;;;8.75;61.82;94637.34;5042251;28;20915;-69
2021/12/27 03:13:24;;;;;;;22.85;13.93;;;;;;;7.90;61.98;94602.63;5042656;28;20435;-69
2021/12/27 03:16:03;;;;;;;19.33;14.05;;;;;;;8.23;62.80;94631.09;5046228;28;20223;-69
2021/12/27 03:18:32;;;;;;;18.83;13.77;;;;;;;8.33;62.78;94610.34;5035274;28;20318;-69
2021/12/27 03:21:00;;;;;;;20.20;13.60;;;;;;;8.39;61.92;94645.91;5046466;28;20439;-67
2021/12/27 03:23:29;;;;;;;20.70;14.57;;;;;;;8.30;62.85;94657.84;5043918;28;20439;-69
2021/12/27 03:25:56;;;;;;;21.70;14.50;;;;;;;8.54;62.08;94638.19;5045237;28;20439;-69
2021/12/27 03:28:23;;;;;;;23.37;15.37;;;;;;;8.15;62.63;94649.81;5047407;28;20879;-70
2021/12/27 03:30:52;;;;;;;20.47;15.13;;;;;;;8.12;62.90;94624.19;5045485;28;20979;-69
2021/12/27 03:33:22;;;;;;;21.83;15.63;;;;;;;8.81;61.71;94607.59;5026965;28;20506;-70
2021/12/27 03:36:01;;;;;;;23.53;14.73;;;;;;;8.76;61.34;94620.63;5027510;28;20825;-69
2021/12/27 03:38:37;;;;;;;23.13;16.83;;;;;;;8.21;62.62;94620.16;5027831;28;20883;-68
2021/12/27 03:41:07;;;;;;;24.30;15.97;;;;;;;6.14;67.95;94574.19;5030731;28;20977;-69
2021/12/27 03:43:34;;;;;;;28.07;16.90;;;;;;;6.21;69.18;94637.25;5031319;28;20447;-69
2021/12/27 03:46:01;;;;;;;22.67;14.97;;;;;;;6.29;69.67;94626.47;5029595;28;20458;-68
2021/12/27 03:48:28;;;;;;;23.07;15.50;;;;;;;6.15;69.96;94623.38;5026543;28;20432;-69
2021/12/27 03:50:55;;;;;;;25.83;16.87;;;;;;;6.12;70.48;94617.84;5030512;28;20439;-69
2021/12/27 03:53:22;;;;;;;26.07;16.97;;;;;;;6.40;69.79;94620.41;5030305;28;20432;-69
2021/12/27 03:55:49;;;;;;;24.37;17.40;;;;;;;6.32;69.67;94623.41;5029209;28;20444;-69
2021/12/27 03:58:33;;;;;;;26.93;17.23;;;;;;;6.30;69.84;94620.22;5031086;28;20447;-69
2021/12/27 04:03:30;;;;;;;24.00;16.03;;;;;;;6.40;70.17;94610.00;5030551;28;20196;-69
2021/12/27 04:05:58;;;;;;;22.67;15.07;;;;;;;7.32;68.25;94610.28;5032246;28;20887;-68
2021/12/27 04:08:25;;;;;;;21.27;14.47;;;;;;;7.02;66.98;94614.06;5051358;28;20454;-70
2021/12/27 04:10:53;;;;;;;21.00;14.23;;;;;;;6.44;69.59;94625.94;5051425;28;20451;-69
2021/12/27 04:13:21;;;;;;;20.30;13.07;;;;;;;6.23;70.00;94613.59;5051292;28;20435;-69
2021/12/27 04:15:50;;;;;;;23.17;14.63;;;;;;;5.97;71.17;94630.56;5047272;28;20471;-70
2021/12/27 04:18:19;;;;;;;19.70;13.03;;;;;;;6.94;69.00;94619.66;5035996;28;20445;-69
2021/12/27 04:20:46;;;;;;;16.43;11.07;;;;;;;7.43;67.13;94638.81;5048088;28;20453;-68
2021/12/27 04:23:13;;;;;;;17.47;11.53;;;;;;;7.46;65.86;94637.56;5046606;28;20434;-69
2021/12/27 04:25:41;;;;;;;16.80;10.90;;;;;;;7.74;64.90;94606.88;5045591;28;21023;-69
2021/12/27 04:28:09;;;;;;;15.53;10.47;;;;;;;7.61;64.98;94635.91;5050220;28;20443;-68
2021/12/27 04:30:37;;;;;;;18.97;11.53;;;;;;;7.15;65.84;94628.56;5047633;28;20446;-69
2021/12/27 04:33:04;;;;;;;17.20;12.07;;;;;;;7.64;65.01;94629.44;5051008;28;20520;-70
2021/12/27 04:35:32;;;;;;;19.03;11.83;;;;;;;7.63;65.41;94622.63;5051063;28;20512;-69
2021/12/27 04:37:59;;;;;;;17.77;11.20;;;;;;;7.84;64.31;94606.19;5050706;28;20481;-70
2021/12/27 04:40:31;;;;;;;24.77;15.60;;;;;;;7.93;64.76;94625.59;5050952;28;20490;-69
2021/12/27 04:43:04;;;;;;;15.83;10.73;;;;;;;7.32;65.89;94602.47;5048311;28;20501;-69
2021/12/27 04:45:31;;;;;;;15.63;10.13;;;;;;;7.63;64.69;94614.81;5051896;28;20988;-70
2021/12/27 04:47:58;;;;;;;15.97;9.67;;;;;;;7.78;65.01;94626.22;5038326;28;20834;-69
2021/12/27 04:50:25;;;;;;;14.53;9.93;;;;;;;8.07;64.00;94621.56;5051647;28;20474;-69
2021/12/27 04:52:53;;;;;;;14.50;10.20;;;;;;;7.69;64.79;94640.72;5048734;28;20435;-69
2021/12/27 04:55:25;;;;;;;13.10;9.80;;;;;;;7.81;65.13;94627.56;5051884;28;20530;-69
2021/12/27 04:57:53;;;;;;;12.60;9.70;;;;;;;7.91;64.26;94627.66;5050548;28;20538;-69
2021/12/27 05:00:20;;;;;;;14.63;9.63;;;;;;;8.21;63.93;94633.97;5049644;28;20478;-68
2021/12/27 05:02:47;;;;;;;14.60;8.97;;;;;;;8.39;62.76;94630.25;5050351;28;20505;-70
2021/12/27 05:05:14;;;;;;;12.63;8.90;;;;;;;8.13;63.24;94644.06;5040316;28;20448;-71
2021/12/27 05:07:42;;;;;;;12.60;9.30;;;;;;;8.40;62.93;94637.03;5042866;28;20518;-69
2021/12/27 05:10:09;;;;;;;12.87;9.43;;;;;;;8.07;63.07;94617.13;5047557;28;20453;-70
2021/12/27 05:12:37;;;;;;;12.40;9.10;;;;;;;8.42;62.96;94655.84;5047900;28;20443;-69
2021/12/27 05:15:04;;;;;;;13.83;8.70;;;;;;;8.38;63.32;94627.88;5048013;28;20481;-69
2021/12/27 05:17:31;;;;;;;11.87;8.37;;;;;;;8.18;63.84;94634.47;5038043;28;21105;-69
2021/12/27 05:19:59;;;;;;;11.67;8.20;;;;;;;7.74;65.10;94643.38;5049865;28;20479;-68
2021/12/27 05:22:26;;;;;;;12.77;8.27;;;;;;;7.56;65.92;94630.66;5044976;28;20481;-70
2021/12/27 05:24:53;;;;;;;11.80;8.57;;;;;;;7.40;66.27;94615.06;5049101;28;20446;-69
2021/12/27 05:27:20;;;;;;;15.30;8.93;;;;;;;7.44;66.96;94634.41;5047268;28;20532;-69
2021/12/27 05:30:08;;;;;;;12.87;9.40;;;;;;;6.84;67.33;94585.66;5049645;28;20466;-70
2021/12/27 05:32:36;;;;;;;13.37;8.80;;;;;;;7.58;66.74;94633.00;5049133;28;20449;-69
2021/12/27 05:35:03;;;;;;;13.00;9.30;;;;;;;7.62;66.10;94626.28;5049837;28;20498;-69
2021/12/27 05:37:31;;;;;;;17.50;9.77;;;;;;;7.52;66.02;94641.81;5049022;28;20443;-70
2021/12/27 05:40:04;;;;;;;13.00;8.60;;;;;;;7.29;67.69;94657.66;5042295;28;20479;-69
2021/12/27 05:42:35;;;;;;;16.70;8.73;;;;;;;7.54;66.46;94616.25;5042127;28;20776;-70
2021/12/27 05:45:04;;;;;;;13.17;8.60;;;;;;;7.45;66.91;94633.34;5047581;28;20459;-70
2021/12/27 05:47:31;;;;;;;13.63;9.30;;;;;;;7.59;66.51;94634.59;5048694;28;20449;-69
2021/12/27 05:49:58;;;;;;;12.93;8.70;;;;;;;7.37;67.19;94628.59;5047665;28;20443;-70
2021/12/27 05:52:25;;;;;;;12.57;8.03;;;;;;;7.01;67.64;94651.53;5049443;28;20840;-70
2021/12/27 05:54:52;;;;;;;14.20;9.33;;;;;;;7.48;67.28;94643.31;5049439;28;20443;-70
2021/12/27 05:57:19;;;;;;;13.43;8.77;;;;;;;7.76;66.54;94624.88;5048126;28;21338;-70
2021/12/27 05:59:48;;;;;;;12.97;9.20;;;;;;;7.63;66.03;94652.09;5048608;28;21187;-70
2021/12/27 06:02:15;;;;;;;15.27;8.87;;;;;;;7.61;66.52;94646.34;5046476;28;20437;-69
2021/12/27 06:04:42;;;;;;;13.70;8.63;;;;;;;7.87;66.29;94634.38;5045014;28;20490;-70
2021/12/27 06:07:09;;;;;;;15.53;8.27;;;;;;;8.01;65.29;94633.00;5049081;28;20431;-69
2021/12/27 06:09:36;;;;;;;10.80;8.10;;;;;;;8.09;65.13;94635.16;5030692;28;20479;-68
2021/12/27 06:12:04;;;;;;;12.17;8.17;;;;;;;8.08;64.62;94639.56;5040562;28;20439;-68
2021/12/27 06:14:31;;;;;;;11.53;8.33;;;;;;;8.10;65.13;94626.28;5047853;28;20823;-66
2021/12/27 06:16:58;;;;;;;13.13;9.27;;;;;;;8.37;64.12;94627.09;5038017;28;20470;-63
2021/12/27 06:19:25;;;;;;;16.10;8.80;;;;;;;8.24;64.86;94617.06;5048191;28;20475;-67
2021/12/27 06:21:52;;;;;;;14.33;9.20;;;;;;;8.25;64.36;94610.03;5044770;28;20443;-71
2021/12/27 06:24:19;;;;;;;14.33;9.47;;;;;;;8.32;64.10;94634.88;5048569;28;20481;-66
2021/12/27 06:26:46;;;;;;;11.73;8.90;;;;;;;8.40;64.10;94626.59;5048995;28;20799;-67
2021/12/27 06:29:13;;;;;;;14.13;9.10;;;;;;;8.40;64.27;94621.38;5047830;28;20445;-65
2021/12/27 06:31:40;;;;;;;15.97;9.50;;;;;;;8.36;64.37;94624.75;5048707;28;20807;-64
2021/12/27 06:34:07;;;;;;;15.13;10.40;;;;;;;8.40;64.34;94616.16;5048338;28;20845;-69
2021/12/27 06:36:34;;;;;;;15.63;10.60;;;;;;;8.24;64.32;94635.34;5048119;28;20447;-68
2021/12/27 06:39:04;;;;;;;15.73;10.07;;;;;;;8.05;65.05;94634.06;5049008;28;20447;-69
2021/12/27 06:41:31;;;;;;;15.03;9.60;;;;;;;8.05;64.42;94623.63;5048798;28;20449;-64
2021/12/27 06:43:58;;;;;;;16.37;9.87;;;;;;;8.19;64.80;94598.72;5044201;28;20475;-65
2021/12/27 06:46:26;;;;;;;13.67;10.00;;;;;;;8.08;65.26;94602.28;5046408;28;20447;-70
2021/12/27 06:48:53;;;;;;;15.30;10.60;;;;;;;8.13;65.27;94604.91;5042895;28;20444;-65
2021/12/27 06:51:20;;;;;;;17.70;10.47;;;;;;;7.97;65.05;94611.78;5030373;28;20526;-67
2021/12/27 06:53:48;;;;;;;15.63;10.10;;;;;;;7.85;65.72;94607.75;5045809;28;20443;-69
2021/12/27 06:56:15;;;;;;;15.93;11.03;;;;;;;8.21;65.72;94601.88;5047996;28;20447;-71
2021/12/27 06:58:44;;;;;;;15.60;10.33;;;;;;;8.15;64.93;94593.22;5048245;28;20458;-68
2021/12/27 07:01:11;;;;;;;14.77;10.47;;;;;;;8.42;64.91;94606.25;5048276;28;20482;-69
2021/12/27 07:03:38;;;;;;;14.63;10.60;;;;;;;8.42;64.86;94608.06;5039110;28;21004;-66
2021/12/27 07:06:06;;;;;;;17.57;10.23;;;;;;;8.47;64.71;94574.97;5036723;28;20439;-69
2021/12/27 07:08:33;;;;;;;11.70;8.70;;;;;;;8.54;64.93;94596.41;5036323;28;20431;-64
2021/12/27 07:11:00;;;;;;;30.17;20.30;;;;;;;8.65;65.03;94587.63;5029038;28;20508;-65
2021/12/27 07:13:27;;;;;;;13.50;10.17;;;;;;;9.00;64.17;94600.94;5039809;28;20446;-68
2021/12/27 07:15:54;;;;;;;61.67;42.63;;;;;;;8.94;63.30;94607.16;5037198;28;20502;-67
2021/12/27 07:18:23;;;;;;;15.27;9.60;;;;;;;8.84;63.72;94594.03;5036618;28;20471;-69
2021/12/27 07:20:53;;;;;;;14.07;8.70;;;;;;;8.84;63.77;94588.81;5037593;28;20489;-70
2021/12/27 07:23:21;;;;;;;12.50;8.40;;;;;;;8.86;63.28;94584.13;5037657;28;20811;-62
2021/12/27 07:25:48;;;;;;;12.40;8.63;;;;;;;8.94;63.50;94581.03;5039716;28;20443;-65
2021/12/27 07:28:15;;;;;;;13.47;9.17;;;;;;;8.82;63.61;94575.22;5036858;28;20984;-68
2021/12/27 07:30:42;;;;;;;12.10;7.73;;;;;;;8.62;64.02;94582.91;5035577;28;20432;-65
2021/12/27 07:33:09;;;;;;;12.47;8.23;;;;;;;8.89;63.35;94581.00;5035096;28;20450;-67
2021/12/27 07:35:36;;;;;;;21.40;9.03;;;;;;;9.00;65.48;94587.88;5032452;28;20443;-70
2021/12/27 07:38:04;;;;;;;12.17;8.60;;;;;;;9.05;65.92;94593.13;5050621;28;20443;-67
2021/12/27 07:40:31;;;;;;;13.83;8.67;;;;;;;9.24;64.52;94585.63;5036874;28;20490;-70
2021/12/27 07:42:58;;;;;;;13.13;9.43;;;;;;;9.31;64.61;94586.19;5037278;28;20537;-67
2021/12/27 07:45:25;;;;;;;12.20;8.60;;;;;;;9.12;64.31;94592.91;5034784;28;20991;-68
2021/12/27 07:47:53;;;;;;;13.37;8.60;;;;;;;8.98;63.58;94587.31;5034372;28;21323;-66
2021/12/27 07:50:20;;;;;;;14.17;8.73;;;;;;;8.97;62.78;94564.88;5036108;28;20439;-65
2021/12/27 07:52:50;;;;;;;13.03;8.93;;;;;;;9.25;62.77;94583.81;5036916;28;21012;-66
2021/12/27 07:55:18;;;;;;;12.30;7.63;;;;;;;9.02;62.49;94570.13;5036319;28;20452;-67
2021/12/27 07:57:45;;;;;;;30.73;22.20;;;;;;;9.45;63.99;94581.31;5036625;28;20967;-67
2021/12/27 08:00:12;;;;;;;15.83;9.03;;;;;;;9.33;63.64;94578.09;5038803;28;20490;-68
2021/12/27 08:02:39;;;;;;;27.40;18.63;;;;;;;9.14;63.22;94575.91;5039097;28;20451;-65
2021/12/27 08:05:07;;;;;;;61.63;40.67;;;;;;;9.22;63.25;94556.34;5040298;28;20450;-67
2021/12/27 08:07:34;;;;;;;11.53;7.80;;;;;;;9.33;64.85;94551.94;5042622;28;20446;-66
2021/12/27 08:10:02;;;;;;;200.57;139.70;;;;;;;9.50;64.56;94568.25;5047287;28;20439;-66
2021/12/27 08:12:29;;;;;;;129.97;94.13;;;;;;;9.66;62.76;94572.47;5047761;28;20446;-65
2021/12/27 08:14:56;;;;;;;53.10;39.03;;;;;;;9.75;62.68;94570.94;5049162;28;20489;-67
2021/12/27 08:17:23;;;;;;;10.37;7.20;;;;;;;9.76;61.40;94572.50;5044913;28;20471;-68
2021/12/27 08:19:49;;;;;;;12.77;7.80;;;;;;;9.68;62.34;94570.38;5043250;28;20497;-67
2021/12/27 08:22:17;;;;;;;22.30;16.10;;;;;;;9.52;62.33;94571.38;5047615;28;20489;-67
2021/12/27 08:24:52;;;;;;;16.20;12.33;;;;;;;9.56;62.13;94562.75;5049326;28;20451;-68
2021/12/27 08:27:21;;;;;;;80.40;56.13;;;;;;;9.77;61.89;94576.69;5050605;28;20489;-67
2021/12/27 08:29:48;;;;;;;203.70;152.23;;;;;;;10.15;60.64;94571.84;5049096;28;20447;-66
2021/12/27 08:32:15;;;;;;;35.63;24.90;;;;;;;10.14;60.32;94545.91;5046547;28;20443;-69
2021/12/27 08:34:42;;;;;;;21.93;12.97;;;;;;;10.09;59.75;94535.44;5050074;28;20973;-67
2021/12/27 08:37:10;;;;;;;26.67;18.63;;;;;;;9.68;61.38;94531.16;5050754;28;20854;-68
2021/12/27 08:39:38;;;;;;;44.53;30.53;;;;;;;9.94;60.53;94538.00;5049319;28;20446;-67
2021/12/27 08:42:08;;;;;;;32.93;20.33;;;;;;;9.86;60.79;94577.75;5050999;28;20454;-69
2021/12/27 08:44:36;;;;;;;21.67;14.57;;;;;;;9.95;60.53;94535.13;5050568;28;20450;-69
2021/12/27 08:47:04;;;;;;;23.53;16.90;;;;;;;10.27;60.25;94545.41;5050357;28;21023;-67
2021/12/27 08:49:30;;;;;;;24.40;15.60;;;;;;;9.98;60.64;94549.53;5049248;28;20443;-65
2021/12/27 08:51:58;;;;;;;23.30;15.80;;;;;;;10.21;60.71;94543.81;5048872;28;20443;-68
2021/12/27 08:54:24;;;;;;;20.63;11.47;;;;;;;10.13;59.90;94552.19;5050628;28;20549;-65
2021/12/27 08:56:51;;;;;;;17.97;11.47;;;;;;;10.25;60.03;94529.19;5050629;28;20478;-65
2021/12/27 08:59:18;;;;;;;28.43;21.60;;;;;;;10.41;59.53;94525.50;5050004;28;20763;-69
2021/12/27 09:01:45;;;;;;;18.43;12.50;;;;;;;10.55;59.52;94537.00;5050394;28;20989;-66
2021/12/27 09:04:12;;;;;;;25.47;20.33;;;;;;;10.48;60.21;94519.97;5049737;28;21073;-69
2021/12/27 09:06:40;;;;;;;105.97;62.13;;;;;;;10.67;59.73;94521.81;5046169;28;21034;-66
2021/12/27 09:09:07;;;;;;;24.27;17.10;;;;;;;10.47;59.53;94516.59;5048905;28;20454;-66
2021/12/27 09:11:34;;;;;;;14.00;9.53;;;;;;;10.29;60.51;94498.81;5050219;28;20504;-67
2021/12/27 09:14:01;;;;;;;63.90;43.43;;;;;;;10.50;59.79;94489.88;5041024;28;20443;-66
2021/12/27 09:16:48;;;;;;;14.37;7.93;;;;;;;10.28;60.21;94491.97;5047602;28;20469;-65
2021/12/27 09:19:16;;;;;;;12.60;9.00;;;;;;;10.20;59.47;94509.00;5037038;28;20455;-69
2021/12/27 09:21:43;;;;;;;13.77;9.47;;;;;;;10.15;60.11;94502.97;5050343;28;20562;-68
2021/12/27 09:24:15;;;;;;;12.80;9.27;;;;;;;10.30;60.03;94484.66;5042667;28;20534;-69
2021/12/27 09:26:42;;;;;;;15.37;9.03;;;;;;;10.43;59.65;94478.88;5046614;28;20876;-68
2021/12/27 09:29:10;;;;;;;13.87;9.67;;;;;;;10.29;60.14;94488.34;5040693;28;20956;-65
2021/12/27 09:31:37;;;;;;;14.13;7.93;;;;;;;10.55;59.46;94479.38;5049207;28;20442;-70
2021/12/27 09:34:04;;;;;;;15.60;10.00;;;;;;;10.60;59.81;94453.16;5041458;28;20535;-70
2021/12/27 09:36:31;;;;;;;17.63;10.97;;;;;;;10.83;59.50;94459.66;5037252;28;20436;-68
2021/12/27 09:38:58;;;;;;;15.10;10.43;;;;;;;10.97;58.86;94453.59;5039173;28;20529;-69
2021/12/27 09:41:26;;;;;;;16.57;11.17;;;;;;;11.10;58.90;94457.47;5039730;28;20467;-68
2021/12/27 09:43:54;;;;;;;18.07;12.33;;;;;;;10.97;59.15;94458.84;5039449;28;20444;-68
2021/12/27 09:46:23;;;;;;;21.20;15.60;;;;;;;11.18;58.40;94462.16;5039372;28;20435;-67
2021/12/27 09:48:53;;;;;;;28.00;17.23;;;;;;;10.70;58.09;94397.34;5038379;28;20959;-69
2021/12/27 09:51:20;;;;;;;26.93;17.87;;;;;;;11.17;57.86;94443.00;5039086;28;20450;-70
2021/12/27 09:53:48;;;;;;;29.13;17.40;;;;;;;11.24;58.07;94438.25;5039545;28;20443;-69
2021/12/27 09:56:15;;;;;;;24.13;15.30;;;;;;;11.14;58.02;94443.56;5045547;28;20500;-67
2021/12/27 09:58:42;;;;;;;25.80;16.70;;;;;;;11.36;58.71;94445.03;5048467;28;20449;-68
2021/12/27 10:01:11;;;;;;;41.47;28.10;;;;;;;11.35;58.02;94448.72;5049317;28;20491;-67
2021/12/27 10:03:57;;;;;;;26.00;18.00;;;;;;;11.53;58.08;94453.34;5044092;28;20447;-70
2021/12/27 10:06:28;;;;;;;19.83;13.30;;;;;;;11.58;58.06;94417.34;5037325;28;20443;-70
2021/12/27 10:08:58;;;;;;;17.87;13.03;;;;;;;11.26;58.42;94437.22;5038969;28;20559;-70
2021/12/27 10:11:30;;;;;;;19.50;12.67;;;;;;;11.45;57.65;94454.69;5037643;28;20440;-70
2021/12/27 10:14:00;;;;;;;18.63;13.30;;;;;;;11.65;57.44;94415.22;5034625;28;20459;-69
2021/12/27 10:16:28;;;;;;;21.10;13.60;;;;;;;11.70;57.27;94445.88;5038139;28;20459;-68
2021/12/27 10:19:01;;;;;;;22.60;14.73;;;;;;;11.53;57.38;94442.84;5041063;28;20958;-68
2021/12/27 10:21:28;;;;;;;20.53;14.67;;;;;;;11.44;57.85;94431.34;5039382;28;20474;-70
2021/12/27 10:24:17;;;;;;;21.13;13.80;;;;;;;11.39;57.52;94449.72;5040456;28;20438;-69
2021/12/27 10:26:49;;;;;;;20.40;13.50;;;;;;;11.40;57.95;94398.84;5039448;28;20468;-68
2021/12/27 10:29:34;;;;;;;17.60;11.97;;;;;;;11.28;58.13;94429.88;5039473;28;20444;-68
2021/12/27 10:32:06;;;;;;;21.20;12.10;;;;;;;11.41;58.23;94426.63;5041248;28;20440;-67
2021/12/27 10:34:45;;;;;;;20.90;11.40;;;;;;;11.41;58.02;94432.66;5039545;28;20458;-69
2021/12/27 10:37:21;;;;;;;19.50;12.73;;;;;;;11.07;58.28;94427.34;5044537;28;20944;-69
2021/12/27 10:39:58;;;;;;;18.77;12.37;;;;;;;11.76;57.36;94450.06;5049080;28;20484;-67
2021/12/27 10:42:32;;;;;;;24.03;14.37;;;;;;;11.56;56.87;94444.91;5036743;28;20598;-66
2021/12/27 10:45:20;;;;;;;115.90;85.63;;;;;;;11.87;56.63;94430.56;5034062;28;20444;-67
2021/12/27 10:47:50;;;;;;;20.80;13.10;;;;;;;11.85;57.04;94419.53;5038218;28;20458;-68
2021/12/27 10:50:23;;;;;;;19.57;12.00;;;;;;;12.06;56.85;94423.59;5039244;28;20964;-65
2021/12/27 10:52:51;;;;;;;18.70;12.00;;;;;;;12.04;56.20;94430.97;5038769;28;20448;-66
2021/12/27 10:55:26;;;;;;;20.87;11.40;;;;;;;11.88;56.63;94432.09;5040801;28;20440;-61
2021/12/27 10:58:27;;;;;;;16.77;10.07;;;;;;;12.16;56.15;94420.88;5043352;28;20869;-64
2021/12/27 11:01:04;;;;;;;12.57;7.03;;;;;;;12.33;54.88;94413.38;5041564;28;20557;-63
2021/12/27 11:03:33;;;;;;;5.07;3.20;;;;;;;12.77;53.04;94413.94;5040044;28;20448;-63
2021/12/27 11:06:03;;;;;;;2.37;1.10;;;;;;;13.13;50.35;94388.84;5036641;28;20469;-63
2021/12/27 11:08:32;;;;;;;3.10;1.60;;;;;;;13.45;50.04;94397.88;5034536;28;20955;-63
2021/12/27 11:10:59;;;;;;;4.27;1.80;;;;;;;13.55;49.74;94366.13;5035484;28;20482;-64
2021/12/27 11:13:29;;;;;;;3.07;1.60;;;;;;;13.65;49.86;94381.78;5035548;28;20439;-62
2021/12/27 11:15:57;;;;;;;3.37;1.43;;;;;;;13.60;50.01;94379.22;5035010;28;20447;-63
2021/12/27 11:18:25;;;;;;;3.73;1.30;;;;;;;13.75;49.59;94387.69;5037402;28;20569;-64
2021/12/27 11:21:00;;;;;;;145.90;129.80;;;;;;;13.88;48.52;94375.63;5039677;28;20922;-64
2021/12/27 11:23:28;;;;;;;6.27;1.90;;;;;;;13.84;49.20;94385.16;5036907;28;20898;-63
2021/12/27 11:26:23;;;;;;;1.87;1.23;;;;;;;14.04;49.10;94382.22;5032061;28;21006;-66
2021/12/27 11:28:50;;;;;;;2.13;1.00;;;;;;;13.85;48.67;94376.97;5035469;28;20460;-63
2021/12/27 11:31:37;;;;;;;2.87;1.30;;;;;;;13.80;48.38;94368.38;5032761;28;21191;-65
2021/12/27 11:34:06;;;;;;;1.93;1.07;;;;;;;14.15;47.76;94370.44;5027667;28;20992;-65
2021/12/27 11:36:36;;;;;;;4.13;1.30;;;;;;;14.22;47.59;94368.19;5028266;28;20440;-65
2021/12/27 11:39:29;;;;;;;5.37;1.20;;;;;;;14.05;47.55;94370.63;5026191;28;20448;-65
2021/12/27 11:42:08;;;;;;;2.30;1.30;;;;;;;14.08;47.89;94368.19;5028851;28;21277;-64
2021/12/27 11:44:44;;;;;;;4.47;1.53;;;;;;;14.33;47.84;94361.72;5029160;28;21022;-65